Terminal Aerodrome Forecast
Issued by NWS Tulsa, OK

Home | Current Version | Previous Version | Text Only | Print | Product List | Glossary On
Versions: 1 2 3 4 5 6 7 8 9 10 11 12 13 14 15 16 17 18
000
FTUS44 KTSA 301400 AAB
TAFFSM
TAF AMD
KFSM 301420Z 3014/3112 10005KT P6SM BKN060
      TEMPO 3015/3017 6SM -TSRA BKN020CB
     FM301700 13005KT P6SM SCT040 SCT250
     FM301900 13007KT P6SM VCTS SCT040CB SCT250
     FM310100 VRB03KT P6SM SCT250
     FM310900 VRB03KT 4SM BR SCT005 SCT250=

USA.gov is the U.S. government's official web portal to all federal, state and local government web resources and services.